Time;durP1;ratioP1;P1;durP2;ratioP2;P2;SDS_P1;SDS_P2;PMS_P1;PMS_P2;Temp;Humidity;BMP_temperature;BMP_pressure;BME280_temperature;BME280_humidity;BME280_pressure;Samples;Min_cycle;Max_cycle;Signal;HPM_P1;HPM_P2
2022/12/22 07:06:29;;;;;;;32.75;22.50;;;;;;;8.56;100.00;100151.25;5279781;28;20394;-69
2022/12/22 07:09:01;;;;;;;37.97;24.90;;;;;;;8.57;100.00;100152.91;5280455;28;20391;-69
2022/12/22 07:11:32;;;;;;;33.58;23.65;;;;;;;8.57;100.00;100166.72;5275444;28;20082;-69
2022/12/22 07:14:03;;;;;;;35.58;24.30;;;;;;;8.54;100.00;100175.59;5266360;28;20029;-69
2022/12/22 07:16:35;;;;;;;30.88;22.73;;;;;;;8.57;100.00;100176.97;5276588;28;20021;-69
2022/12/22 07:19:09;;;;;;;32.30;21.88;;;;;;;8.55;100.00;100174.47;5289135;28;20024;-69
2022/12/22 07:21:40;;;;;;;29.83;20.92;;;;;;;8.57;100.00;100169.50;5286219;28;20440;-69
2022/12/22 07:24:11;;;;;;;31.63;22.92;;;;;;;8.62;100.00;100165.84;5300834;28;20021;-69
2022/12/22 07:26:42;;;;;;;28.92;21.02;;;;;;;8.62;100.00;100169.44;5300634;28;20056;-69
2022/12/22 07:29:14;;;;;;;34.78;24.25;;;;;;;8.63;100.00;100173.84;5299911;28;20031;-69
2022/12/22 07:31:45;;;;;;;30.40;23.25;;;;;;;8.73;100.00;100163.78;5300906;28;20107;-69
2022/12/22 07:34:20;;;;;;;29.48;21.25;;;;;;;8.67;100.00;100166.63;5284881;28;20032;-69
2022/12/22 07:36:51;;;;;;;30.50;21.42;;;;;;;8.74;100.00;100174.53;5279263;28;20021;-70
2022/12/22 07:39:22;;;;;;;29.13;21.73;;;;;;;8.75;100.00;100175.38;5273013;28;20131;-69
2022/12/22 07:44:43;;;;;;;27.92;21.27;;;;;;;8.77;100.00;100189.72;5279427;28;20044;-69
2022/12/22 07:47:15;;;;;;;30.58;21.88;;;;;;;8.81;100.00;100204.63;5267122;28;20025;-69
2022/12/22 07:52:36;;;;;;;37.35;28.73;;;;;;;8.83;100.00;100207.91;5276099;28;20410;-69
2022/12/22 07:55:10;;;;;;;27.05;18.50;;;;;;;8.95;100.00;100208.34;5272553;28;20022;-71
2022/12/22 07:57:42;;;;;;;22.70;17.40;;;;;;;8.98;100.00;100221.56;5258192;28;20044;-77
2022/12/22 08:00:14;;;;;;;30.23;21.40;;;;;;;8.88;100.00;100235.50;5257333;28;20029;-76
2022/12/22 08:02:53;;;;;;;31.83;23.17;;;;;;;8.93;100.00;100254.81;5256354;28;20026;-81
2022/12/22 08:05:24;;;;;;;28.15;21.50;;;;;;;8.89;100.00;100256.50;5257260;28;20081;-75
2022/12/22 08:07:56;;;;;;;34.95;22.80;;;;;;;8.82;100.00;100253.25;5261422;28;20053;-75
2022/12/22 08:10:27;;;;;;;31.08;23.35;;;;;;;8.81;100.00;100268.22;5278207;28;20033;-77
2022/12/22 08:12:58;;;;;;;29.52;21.40;;;;;;;8.94;100.00;100270.28;5269286;28;20026;-74
2022/12/22 08:15:30;;;;;;;33.13;25.38;;;;;;;8.81;100.00;100284.81;5257658;28;20421;-74
2022/12/22 08:18:01;;;;;;;30.15;21.80;;;;;;;9.01;100.00;100284.59;5247500;28;20021;-74
2022/12/22 08:20:33;;;;;;;32.03;21.50;;;;;;;8.96;100.00;100279.13;5255451;28;20030;-74
2022/12/22 08:23:05;;;;;;;30.23;20.10;;;;;;;9.07;100.00;100283.41;5244375;28;20108;-74
2022/12/22 08:25:36;;;;;;;32.67;23.42;;;;;;;9.03;100.00;100287.91;5248498;28;20112;-74
2022/12/22 08:28:07;;;;;;;27.65;19.75;;;;;;;9.05;100.00;100291.19;5243936;28;20036;-74
2022/12/22 08:30:39;;;;;;;30.77;22.85;;;;;;;9.07;100.00;100288.13;5243167;28;20568;-74
2022/12/22 08:33:10;;;;;;;29.63;21.10;;;;;;;9.25;100.00;100294.84;5245261;28;20067;-74
2022/12/22 08:35:42;;;;;;;28.42;21.02;;;;;;;8.98;100.00;100312.84;5243977;28;20098;-73
2022/12/22 08:38:13;;;;;;;26.42;19.45;;;;;;;8.88;100.00;100305.47;5242921;28;20053;-73
2022/12/22 08:40:46;;;;;;;29.52;19.48;;;;;;;9.01;100.00;100328.03;5242680;28;20145;-74
2022/12/22 08:43:18;;;;;;;25.02;19.77;;;;;;;8.91;100.00;100337.25;5258191;28;20395;-72
2022/12/22 08:45:49;;;;;;;24.25;18.65;;;;;;;9.20;100.00;100339.16;5263776;28;20353;-72
2022/12/22 08:48:21;;;;;;;27.55;20.00;;;;;;;9.10;100.00;100354.78;5262781;28;20033;-78
2022/12/22 08:50:52;;;;;;;24.27;20.73;;;;;;;9.32;100.00;100364.50;5264513;28;20476;-76
2022/12/22 08:53:23;;;;;;;46.95;37.25;;;;;;;9.17;100.00;100371.00;5254399;28;20021;-75
2022/12/22 08:55:55;;;;;;;28.13;21.40;;;;;;;9.05;100.00;100371.41;5255539;28;20665;-76
2022/12/22 08:58:26;;;;;;;32.85;24.38;;;;;;;9.07;100.00;100369.16;5273733;28;20035;-76
2022/12/22 09:00:58;;;;;;;33.50;23.77;;;;;;;8.96;100.00;100359.31;5250018;28;20383;-77
2022/12/22 09:03:33;;;;;;;31.65;23.13;;;;;;;9.06;100.00;100370.28;5284915;28;20040;-76
2022/12/22 09:06:04;;;;;;;29.35;20.85;;;;;;;9.20;100.00;100380.66;5283967;28;20434;-76
2022/12/22 09:08:36;;;;;;;29.63;21.90;;;;;;;9.00;100.00;100387.22;5282645;28;20107;-76
2022/12/22 09:11:07;;;;;;;34.85;24.20;;;;;;;8.92;100.00;100383.13;5253796;28;20029;-75
2022/12/22 09:13:41;;;;;;;29.40;21.27;;;;;;;8.92;100.00;100385.88;5246332;28;20460;-77
2022/12/22 09:16:12;;;;;;;27.88;20.65;;;;;;;8.90;100.00;100377.91;5245908;28;20041;-76
2022/12/22 09:18:44;;;;;;;33.25;23.23;;;;;;;8.84;100.00;100384.56;5250528;28;20025;-76
2022/12/22 09:21:16;;;;;;;29.90;20.60;;;;;;;8.96;100.00;100383.38;5261929;28;20041;-75
2022/12/22 09:23:47;;;;;;;29.58;20.35;;;;;;;8.83;100.00;100393.19;5263490;28;20033;-75
2022/12/22 09:26:20;;;;;;;31.70;22.65;;;;;;;8.90;100.00;100404.75;5244117;28;20037;-75
2022/12/22 09:28:52;;;;;;;27.90;22.20;;;;;;;8.88;100.00;100393.13;5239984;28;20036;-75
2022/12/22 09:31:25;;;;;;;32.42;22.48;;;;;;;8.89;100.00;100400.31;5242412;28;20473;-75
2022/12/22 09:33:56;;;;;;;30.45;22.80;;;;;;;8.81;100.00;100401.75;5254301;28;20040;-74
2022/12/22 09:36:30;;;;;;;31.58;21.45;;;;;;;9.02;100.00;100407.94;5254730;28;20112;-74
2022/12/22 09:39:05;;;;;;;30.95;23.27;;;;;;;8.85;100.00;100407.53;5266866;28;20041;-75
2022/12/22 09:41:49;;;;;;;34.35;23.67;;;;;;;8.82;100.00;100408.09;5251132;28;20024;-75
2022/12/22 09:44:53;;;;;;;28.88;22.27;;;;;;;9.02;100.00;100419.00;5258372;28;20036;-75
2022/12/22 09:47:40;;;;;;;29.95;22.75;;;;;;;8.97;100.00;100421.81;5263894;28;20075;-75
2022/12/22 09:50:16;;;;;;;33.10;24.30;;;;;;;8.85;100.00;100424.97;5256028;28;20036;-75
2022/12/22 09:52:51;;;;;;;31.35;24.75;;;;;;;8.80;100.00;100426.94;5261111;28;20033;-75
2022/12/22 09:55:22;;;;;;;;;;;;;;;8.93;100.00;100431.81;5263046;28;20017;-74
2022/12/22 09:57:57;;;;;;;33.70;25.13;;;;;;;8.76;100.00;100434.16;5263108;28;19921;-76
2022/12/22 10:00:28;;;;;;;36.60;26.25;;;;;;;8.68;100.00;100433.63;5263029;28;20346;-75
2022/12/22 10:03:28;;;;;;;34.30;24.88;;;;;;;8.75;100.00;100440.81;5255912;28;20112;-75
2022/12/22 10:06:09;;;;;;;31.95;23.55;;;;;;;8.69;100.00;100437.22;5261856;28;20373;-75
2022/12/22 10:08:41;;;;;;;32.42;22.90;;;;;;;8.63;100.00;100443.91;5243177;28;20024;-74
2022/12/22 10:11:16;;;;;;;28.15;22.77;;;;;;;8.62;100.00;100442.28;5240202;28;20030;-74
2022/12/22 10:13:47;;;;;;;30.13;22.08;;;;;;;8.74;100.00;100453.78;5241833;28;20443;-74
2022/12/22 10:16:25;;;;;;;28.77;22.25;;;;;;;8.69;100.00;100470.41;5240446;28;20029;-74
2022/12/22 10:19:04;;;;;;;23.80;17.88;;;;;;;8.79;100.00;100463.97;5258786;28;20021;-74
2022/12/22 10:21:36;;;;;;;27.10;17.13;;;;;;;8.76;100.00;100461.78;5262123;28;20048;-74
2022/12/22 10:24:34;;;;;;;26.50;16.25;;;;;;;8.82;100.00;100463.41;5256139;28;20029;-79
2022/12/22 10:27:07;;;;;;;21.10;15.05;;;;;;;8.69;100.00;100448.28;5239559;28;20069;-78
2022/12/22 10:29:39;;;;;;;23.67;14.95;;;;;;;8.74;100.00;100450.19;5241900;28;20029;-80
2022/12/22 10:32:17;;;;;;;18.33;13.85;;;;;;;8.69;100.00;100457.44;5251953;28;20430;-74
2022/12/22 10:35:03;;;;;;;22.33;13.90;;;;;;;8.69;100.00;100460.19;5262129;28;20025;-74
2022/12/22 10:37:37;;;;;;;19.02;13.02;;;;;;;8.72;100.00;100461.56;5261357;28;20086;-74
2022/12/22 10:40:21;;;;;;;19.05;14.93;;;;;;;8.68;100.00;100463.22;5262012;28;20476;-75
2022/12/22 10:42:54;;;;;;;18.58;14.02;;;;;;;8.66;100.00;100471.81;5242660;28;20079;-75
2022/12/22 10:45:26;;;;;;;21.63;16.10;;;;;;;8.68;100.00;100464.06;5240370;28;20499;-74
2022/12/22 10:47:58;;;;;;;19.80;14.65;;;;;;;8.73;100.00;100454.09;5259113;28;20049;-72
2022/12/22 10:50:29;;;;;;;20.17;14.57;;;;;;;8.79;100.00;100458.44;5259099;28;20041;-72
2022/12/22 10:53:02;;;;;;;20.70;14.02;;;;;;;8.88;100.00;100465.03;5246037;28;20164;-73
2022/12/22 10:55:34;;;;;;;19.90;15.27;;;;;;;8.87;100.00;100472.50;5240126;28;20017;-72
2022/12/22 10:58:09;;;;;;;23.30;14.45;;;;;;;8.87;100.00;100479.97;5245222;28;20060;-73
2022/12/22 11:00:40;;;;;;;17.27;12.48;;;;;;;8.90;100.00;100477.47;5260991;28;20052;-73
2022/12/22 11:03:13;;;;;;;24.48;15.07;;;;;;;8.90;100.00;100485.75;5250230;28;20066;-73
2022/12/22 11:05:44;;;;;;;20.77;13.48;;;;;;;8.91;100.00;100481.88;5237601;28;20060;-74
2022/12/22 11:08:18;;;;;;;17.88;12.60;;;;;;;8.87;100.00;100482.72;5239451;28;20025;-73
2022/12/22 11:10:55;;;;;;;17.92;12.63;;;;;;;9.13;100.00;100483.38;5238845;28;20392;-74
2022/12/22 11:13:41;;;;;;;17.58;13.40;;;;;;;9.21;100.00;100490.25;5238466;28;20026;-73
2022/12/22 11:16:47;;;;;;;17.70;14.85;;;;;;;9.16;100.00;100490.28;5245472;28;20436;-75
2022/12/22 11:19:18;;;;;;;23.17;18.17;;;;;;;9.03;100.00;100494.53;5238968;28;20365;-73
2022/12/22 11:22:02;;;;;;;24.13;18.48;;;;;;;9.02;100.00;100482.63;5240931;28;20041;-72
2022/12/22 11:24:58;;;;;;;22.25;15.93;;;;;;;9.26;100.00;100482.72;5257227;28;20029;-72
2022/12/22 11:28:02;;;;;;;20.67;16.20;;;;;;;9.36;100.00;100484.56;5260780;28;20025;-71
2022/12/22 11:30:49;;;;;;;22.25;18.10;;;;;;;9.45;100.00;100491.13;5261620;28;20083;-70
2022/12/22 11:33:34;;;;;;;21.30;17.30;;;;;;;9.34;100.00;100492.34;5249518;28;20037;-70
2022/12/22 11:36:14;;;;;;;22.77;18.45;;;;;;;9.26;100.00;100501.28;5240784;28;20021;-70
2022/12/22 11:39:06;;;;;;;24.98;17.65;;;;;;;9.46;100.00;100501.09;5247949;28;20033;-71
2022/12/22 11:41:47;;;;;;;22.95;18.73;;;;;;;9.39;100.00;100503.38;5240298;28;20025;-71
2022/12/22 11:44:33;;;;;;;52.15;41.78;;;;;;;9.30;100.00;100503.16;5239993;28;20614;-70
2022/12/22 11:47:27;;;;;;;63.47;46.28;;;;;;;9.25;100.00;100505.13;5240665;28;20029;-71
2022/12/22 11:50:29;;;;;;;26.70;20.52;;;;;;;9.31;100.00;100509.53;5241761;28;20435;-71
2022/12/22 11:53:24;;;;;;;23.90;18.45;;;;;;;9.27;100.00;100508.44;5264711;28;20535;-71
2022/12/22 11:56:37;;;;;;;22.30;17.35;;;;;;;9.21;100.00;100504.06;5248269;28;20046;-71
2022/12/22 11:59:27;;;;;;;20.98;18.48;;;;;;;9.08;100.00;100505.56;5201943;28;20042;-74
2022/12/22 12:02:27;;;;;;;20.60;16.60;;;;;;;9.04;100.00;100494.22;5200631;28;20166;-76
2022/12/22 12:05:40;;;;;;;18.60;15.05;;;;;;;9.10;100.00;100493.09;5238657;28;20377;-71
2022/12/22 12:08:22;;;;;;;22.17;13.85;;;;;;;9.14;100.00;100491.38;5245739;28;20124;-72
2022/12/22 12:11:01;;;;;;;25.38;18.77;;;;;;;9.20;100.00;100491.34;5244196;28;20048;-73
2022/12/22 12:13:48;;;;;;;16.85;14.68;;;;;;;9.09;100.00;100479.53;5254194;28;20060;-71
2022/12/22 12:16:53;;;;;;;15.57;13.90;;;;;;;9.24;100.00;100473.06;5243611;28;20065;-71
2022/12/22 12:19:30;;;;;;;18.33;14.80;;;;;;;9.18;100.00;100468.66;5261443;28;20380;-71
2022/12/22 12:22:31;;;;;;;17.95;13.68;;;;;;;9.15;100.00;100461.75;5264888;28;20025;-72
2022/12/22 12:25:24;;;;;;;15.38;13.40;;;;;;;9.36;100.00;100454.13;5244930;28;20056;-72
2022/12/22 12:28:10;;;;;;;14.82;12.68;;;;;;;9.26;100.00;100459.75;5247930;28;20384;-71
2022/12/22 12:30:52;;;;;;;16.48;12.43;;;;;;;9.25;100.00;100444.25;5263040;28;20077;-70
2022/12/22 12:33:37;;;;;;;16.38;13.55;;;;;;;9.25;100.00;100447.84;5264318;28;20048;-71
2022/12/22 12:36:23;;;;;;;18.08;14.25;;;;;;;9.28;100.00;100454.75;5260746;28;20065;-71
2022/12/22 12:39:36;;;;;;;16.38;12.65;;;;;;;9.31;100.00;100448.66;5258715;28;20094;-71
2022/12/22 12:42:16;;;;;;;18.35;14.13;;;;;;;9.34;100.00;100442.53;5247778;28;20021;-71
2022/12/22 12:44:51;;;;;;;15.30;12.82;;;;;;;9.34;100.00;100445.28;5259844;28;20071;-72
2022/12/22 12:47:26;;;;;;;17.17;13.68;;;;;;;9.36;100.00;100446.66;5246105;28;20392;-72
2022/12/22 12:49:58;;;;;;;14.88;13.30;;;;;;;9.55;100.00;100454.22;5243582;28;20058;-72
2022/12/22 12:52:38;;;;;;;19.33;14.68;;;;;;;9.41;100.00;100453.22;5246241;28;20390;-72
2022/12/22 12:55:39;;;;;;;18.33;13.88;;;;;;;9.42;100.00;100444.66;5256315;28;20494;-70
2022/12/22 12:58:11;;;;;;;16.55;14.88;;;;;;;9.40;100.00;100444.13;5245190;28;20519;-71
2022/12/22 13:00:45;;;;;;;15.27;13.68;;;;;;;9.44;100.00;100436.06;5264184;28;20029;-70
2022/12/22 13:03:23;;;;;;;17.33;15.13;;;;;;;9.41;100.00;100448.56;5262708;28;20021;-70
2022/12/22 13:06:00;;;;;;;18.27;15.77;;;;;;;9.47;100.00;100441.84;5253251;28;20049;-71
2022/12/22 13:08:51;;;;;;;19.98;17.23;;;;;;;9.44;100.00;100444.38;5257589;28;20381;-69
2022/12/22 13:11:36;;;;;;;17.42;14.80;;;;;;;9.46;100.00;100439.34;5254880;28;20052;-69
2022/12/22 13:14:07;;;;;;;36.25;31.05;;;;;;;9.50;100.00;100435.72;5247186;28;20025;-71
2022/12/22 13:16:39;;;;;;;20.05;17.10;;;;;;;9.56;100.00;100450.31;5249124;28;20033;-71
2022/12/22 13:19:21;;;;;;;24.23;20.50;;;;;;;9.55;100.00;100448.69;5241381;28;20026;-70
2022/12/22 13:21:56;;;;;;;18.85;16.17;;;;;;;9.45;100.00;100440.47;5243329;28;20052;-73
2022/12/22 13:24:32;;;;;;;17.85;15.65;;;;;;;9.37;100.00;100447.47;5248320;28;20056;-73
2022/12/22 13:27:09;;;;;;;16.65;13.25;;;;;;;9.29;100.00;100442.56;5250482;28;20091;-72
2022/12/22 13:29:44;;;;;;;18.10;13.63;;;;;;;9.28;100.00;100447.28;5263430;28;20530;-73
2022/12/22 13:32:26;;;;;;;15.25;13.63;;;;;;;9.38;100.00;100448.28;5249999;28;20029;-76
2022/12/22 13:35:03;;;;;;;13.95;11.93;;;;;;;9.20;100.00;100441.53;5254909;28;20583;-73
2022/12/22 13:37:41;;;;;;;14.32;11.90;;;;;;;9.17;100.00;100433.81;5250183;28;20033;-73
2022/12/22 13:40:22;;;;;;;13.10;10.50;;;;;;;9.24;100.00;100426.00;5246570;28;20029;-73
2022/12/22 13:43:14;;;;;;;11.18;9.80;;;;;;;9.30;100.00;100424.84;5243350;28;20496;-71
2022/12/22 13:45:49;;;;;;;12.65;9.60;;;;;;;9.32;100.00;100417.06;5263373;28;20039;-72
2022/12/22 13:48:41;;;;;;;11.80;9.57;;;;;;;9.36;100.00;100407.09;5255127;28;20048;-72
2022/12/22 13:51:31;;;;;;;12.20;9.50;;;;;;;9.41;100.00;100420.88;5245071;28;20061;-74
2022/12/22 13:54:25;;;;;;;10.63;9.60;;;;;;;9.40;100.00;100413.66;5242547;28;20037;-74
2022/12/22 13:56:59;;;;;;;13.68;10.25;;;;;;;9.40;100.00;100402.59;5243460;28;20026;-73
2022/12/22 13:59:32;;;;;;;11.30;10.15;;;;;;;9.42;100.00;100400.38;5243847;28;20078;-74
2022/12/22 14:02:06;;;;;;;13.05;10.15;;;;;;;9.41;100.00;100404.25;5245610;28;20037;-72
2022/12/22 14:04:40;;;;;;;15.23;10.70;;;;;;;9.39;100.00;100395.44;5247214;28;20488;-71
2022/12/22 14:07:18;;;;;;;11.50;10.27;;;;;;;9.44;100.00;100398.13;5263557;28;20419;-71
2022/12/22 14:09:53;;;;;;;13.80;10.68;;;;;;;9.34;100.00;100390.75;5263117;28;20060;-71
2022/12/22 14:12:29;;;;;;;27.30;24.40;;;;;;;9.43;100.00;100390.13;5264419;28;20469;-71
2022/12/22 14:15:01;;;;;;;13.45;11.10;;;;;;;9.45;100.00;100391.47;5263923;28;20078;-72
2022/12/22 14:17:36;;;;;;;11.57;10.38;;;;;;;9.41;100.00;100393.19;5261071;28;20049;-72
2022/12/22 14:20:31;;;;;;;11.38;10.10;;;;;;;9.45;100.00;100388.72;5262882;28;20048;-69
2022/12/22 14:23:07;;;;;;;11.97;9.20;;;;;;;9.43;100.00;100388.16;5248777;28;20026;-71
2022/12/22 14:25:41;;;;;;;12.10;9.18;;;;;;;9.37;100.00;100369.97;5252913;28;20037;-71
2022/12/22 14:28:24;;;;;;;10.95;8.65;;;;;;;9.38;100.00;100377.16;5242019;28;20026;-71
2022/12/22 14:30:58;;;;;;;14.00;10.30;;;;;;;9.38;100.00;100365.25;5245303;28;20033;-71
2022/12/22 14:33:32;;;;;;;11.45;10.05;;;;;;;9.35;100.00;100372.22;5258901;28;20086;-71
2022/12/22 14:36:14;;;;;;;14.65;11.52;;;;;;;9.33;100.00;100363.38;5260832;28;20027;-70
2022/12/22 14:38:48;;;;;;;13.38;11.02;;;;;;;9.34;100.00;100365.03;5259645;28;20524;-73
2022/12/22 14:41:40;;;;;;;9.75;8.50;;;;;;;9.46;100.00;100362.69;5241176;28;20032;-74
2022/12/22 14:44:15;;;;;;;29.77;24.60;;;;;;;9.39;100.00;100345.59;5241030;28;20029;-70
2022/12/22 14:47:28;;;;;;;12.07;10.88;;;;;;;9.35;100.00;100348.13;5240485;28;20037;-75
2022/12/22 14:50:03;;;;;;;12.23;10.15;;;;;;;9.27;100.00;100347.94;5247434;28;20093;-73
2022/12/22 14:52:43;;;;;;;13.07;10.57;;;;;;;9.27;100.00;100347.94;5239116;28;20026;-73
2022/12/22 14:55:27;;;;;;;24.80;22.13;;;;;;;9.28;100.00;100344.91;5241525;28;20022;-74
2022/12/22 14:58:09;;;;;;;14.02;11.55;;;;;;;9.28;100.00;100349.59;5259086;28;20121;-74
2022/12/22 15:00:47;;;;;;;19.95;14.45;;;;;;;9.26;100.00;100338.81;5258193;28;20024;-75
2022/12/22 15:03:24;;;;;;;45.53;38.92;;;;;;;9.29;100.00;100337.41;5258770;28;20037;-72
2022/12/22 15:05:55;;;;;;;12.40;11.13;;;;;;;9.26;100.00;100340.78;5258517;28;20053;-72
2022/12/22 15:08:40;;;;;;;25.20;20.02;;;;;;;9.22;100.00;100340.53;5261678;28;20456;-72
2022/12/22 15:11:15;;;;;;;14.20;12.80;;;;;;;9.17;100.00;100332.28;5261603;28;20573;-72
2022/12/22 15:13:50;;;;;;;14.05;10.93;;;;;;;9.21;100.00;100332.53;5259738;28;20108;-74
2022/12/22 15:16:22;;;;;;;11.33;9.97;;;;;;;9.21;100.00;100329.75;5261809;28;20468;-70
2022/12/22 15:18:54;;;;;;;13.57;12.27;;;;;;;9.11;100.00;100320.44;5254257;28;20083;-72
2022/12/22 15:21:25;;;;;;;34.50;30.75;;;;;;;9.21;100.00;100322.28;5240727;28;20029;-72
2022/12/22 15:23:56;;;;;;;10.73;9.82;;;;;;;9.22;100.00;100318.38;5245702;28;20022;-71
2022/12/22 15:26:28;;;;;;;10.02;9.02;;;;;;;9.11;100.00;100316.84;5255031;28;20345;-71
2022/12/22 15:29:02;;;;;;;9.75;8.80;;;;;;;9.23;100.00;100317.28;5265655;28;20111;-68
2022/12/22 15:31:35;;;;;;;10.75;9.23;;;;;;;9.22;100.00;100309.25;5248748;28;20033;-73
2022/12/22 15:34:15;;;;;;;12.27;9.13;;;;;;;9.22;100.00;100312.03;5264948;28;20033;-71
2022/12/22 15:36:46;;;;;;;10.52;9.05;;;;;;;9.20;100.00;100304.00;5265126;28;20068;-72
2022/12/22 15:39:19;;;;;;;8.88;7.97;;;;;;;9.18;100.00;100303.50;5265371;28;20053;-72
2022/12/22 15:41:51;;;;;;;8.60;7.82;;;;;;;9.40;100.00;100297.44;5265097;28;20044;-74
2022/12/22 15:44:22;;;;;;;8.60;7.80;;;;;;;9.26;100.00;100293.75;5267178;28;20053;-75
2022/12/22 15:46:56;;;;;;;7.40;6.70;;;;;;;9.24;100.00;100296.78;5261272;28;20028;-71
2022/12/22 15:49:29;;;;;;;7.75;6.88;;;;;;;9.27;100.00;100289.84;5244489;28;20473;-71
2022/12/22 15:52:03;;;;;;;8.10;7.30;;;;;;;9.26;100.00;100290.97;5244618;28;20100;-73
2022/12/22 15:54:35;;;;;;;26.35;23.75;;;;;;;9.26;100.00;100280.72;5244269;28;20029;-73
2022/12/22 15:57:11;;;;;;;12.15;11.05;;;;;;;9.37;100.00;100284.19;5265632;28;20024;-73
2022/12/22 15:59:43;;;;;;;7.85;7.13;;;;;;;9.24;100.00;100282.13;5252930;28;20018;-77
2022/12/22 16:02:14;;;;;;;7.97;6.63;;;;;;;9.32;100.00;100278.72;5244002;28;20033;-73
2022/12/22 16:04:45;;;;;;;8.95;8.10;;;;;;;9.23;100.00;100266.63;5255275;28;20047;-72
2022/12/22 16:07:16;;;;;;;7.25;6.60;;;;;;;9.31;100.00;100271.53;5264277;28;20047;-73
2022/12/22 16:09:49;;;;;;;14.48;12.98;;;;;;;9.20;100.00;100264.47;5263846;28;20021;-73
2022/12/22 16:12:20;;;;;;;8.30;7.55;;;;;;;9.22;100.00;100260.28;5264970;28;20480;-73
2022/12/22 16:14:55;;;;;;;7.20;6.60;;;;;;;9.28;100.00;100255.50;5264280;28;20056;-73
2022/12/22 16:17:28;;;;;;;9.57;8.27;;;;;;;9.25;100.00;100250.56;5265049;28;20029;-73
2022/12/22 16:19:59;;;;;;;8.52;7.75;;;;;;;9.27;100.00;100251.91;5264712;28;20480;-73
2022/12/22 16:22:32;;;;;;;10.63;8.38;;;;;;;9.25;100.00;100240.31;5251187;28;20037;-73
2022/12/22 16:25:11;;;;;;;8.77;7.97;;;;;;;9.28;100.00;100234.22;5263887;28;20029;-74
2022/12/22 16:27:43;;;;;;;8.70;7.97;;;;;;;9.34;100.00;100234.97;5264710;28;20033;-74
2022/12/22 16:30:19;;;;;;;8.38;7.70;;;;;;;9.26;100.00;100230.91;5244668;28;20368;-74
2022/12/22 16:32:51;;;;;;;7.03;6.43;;;;;;;9.44;100.00;100226.53;5254452;28;20029;-74
2022/12/22 16:35:25;;;;;;;11.25;10.13;;;;;;;9.33;100.00;100222.22;5263683;28;20018;-74
2022/12/22 16:37:58;;;;;;;8.38;7.63;;;;;;;9.30;100.00;100217.31;5259048;28;20496;-74
